sensor_id;sensor_type;location;lat;lon;timestamp;pressure;altitude;pressure_sealevel;temperature;humidity
46942;BME280;32676;52.630;4.896;2024-01-16T00:01:11;100191.16;;;1.97;74.39
46942;BME280;32676;52.630;4.896;2024-01-16T00:03:40;100192.84;;;1.98;74.17
46942;BME280;32676;52.630;4.896;2024-01-16T00:06:07;100206.66;;;2.00;73.83
46942;BME280;32676;52.630;4.896;2024-01-16T00:08:33;100194.59;;;1.99;73.59
46942;BME280;32676;52.630;4.896;2024-01-16T00:11:01;100177.38;;;1.91;73.88
46942;BME280;32676;52.630;4.896;2024-01-16T00:13:27;100151.50;;;1.87;74.11
46942;BME280;32676;52.630;4.896;2024-01-16T00:15:54;100137.75;;;1.80;74.46
46942;BME280;32676;52.630;4.896;2024-01-16T00:18:21;100126.50;;;1.80;74.72
46942;BME280;32676;52.630;4.896;2024-01-16T00:20:50;100117.03;;;1.77;74.91
46942;BME280;32676;52.630;4.896;2024-01-16T00:23:16;100105.84;;;1.73;75.08
46942;BME280;32676;52.630;4.896;2024-01-16T00:25:43;100084.28;;;1.70;75.07
46942;BME280;32676;52.630;4.896;2024-01-16T00:28:09;100083.44;;;1.69;75.22
46942;BME280;32676;52.630;4.896;2024-01-16T00:30:36;100068.75;;;1.67;75.24
46942;BME280;32676;52.630;4.896;2024-01-16T00:33:02;100065.34;;;1.65;75.48
46942;BME280;32676;52.630;4.896;2024-01-16T00:35:29;100048.16;;;1.54;75.57
46942;BME280;32676;52.630;4.896;2024-01-16T00:37:57;100044.69;;;1.59;75.93
46942;BME280;32676;52.630;4.896;2024-01-16T00:40:23;100065.34;;;1.65;76.15
46942;BME280;32676;52.630;4.896;2024-01-16T00:42:50;100065.34;;;1.65;76.38
46942;BME280;32676;52.630;4.896;2024-01-16T00:45:16;100060.16;;;1.65;76.57
46942;BME280;32676;52.630;4.896;2024-01-16T00:47:43;100072.25;;;1.66;76.81
46942;BME280;32676;52.630;4.896;2024-01-16T00:50:09;100068.81;;;1.64;77.00
46942;BME280;32676;52.630;4.896;2024-01-16T00:52:36;100067.06;;;1.66;77.00
46942;BME280;32676;52.630;4.896;2024-01-16T00:55:05;100073.94;;;1.67;76.89
46942;BME280;32676;52.630;4.896;2024-01-16T00:57:32;100080.84;;;1.68;76.98
46942;BME280;32676;52.630;4.896;2024-01-16T00:59:59;100075.69;;;1.65;76.92
46942;BME280;32676;52.630;4.896;2024-01-16T01:02:25;100062.75;;;1.63;76.67
46942;BME280;32676;52.630;4.896;2024-01-16T01:04:51;100079.13;;;1.67;76.38
46942;BME280;32676;52.630;4.896;2024-01-16T01:07:18;100086.03;;;1.68;75.91
46942;BME280;32676;52.630;4.896;2024-01-16T01:09:44;100090.31;;;1.70;75.41
46942;BME280;32676;52.630;4.896;2024-01-16T01:12:12;100121.31;;;1.78;74.83
46942;BME280;32676;52.630;4.896;2024-01-16T01:14:39;100147.19;;;1.84;74.71
46942;BME280;32676;52.630;4.896;2024-01-16T01:17:05;100161.84;;;1.88;74.25
46942;BME280;32676;52.630;4.896;2024-01-16T01:19:32;100163.56;;;1.89;73.83
46942;BME280;32676;52.630;4.896;2024-01-16T01:21:59;100170.47;;;1.90;73.77
46942;BME280;32676;52.630;4.896;2024-01-16T01:24:26;100186.00;;;1.94;73.64
46942;BME280;32676;52.630;4.896;2024-01-16T01:26:52;100195.47;;;1.96;73.42
46942;BME280;32676;52.630;4.896;2024-01-16T01:29:20;100202.38;;;1.99;73.26
46942;BME280;32676;52.630;4.896;2024-01-16T01:31:46;100211.00;;;1.99;73.02
46942;BME280;32676;52.630;4.896;2024-01-16T01:34:14;100196.34;;;1.97;73.16
46942;BME280;32676;52.630;4.896;2024-01-16T01:36:40;100175.63;;;1.94;73.07
46942;BME280;32676;52.630;4.896;2024-01-16T01:39:08;100187.69;;;1.95;73.06
46942;BME280;32676;52.630;4.896;2024-01-16T01:41:36;100184.25;;;1.96;73.21
46942;BME280;32676;52.630;4.896;2024-01-16T01:44:03;100186.84;;;1.91;73.45
46942;BME280;32676;52.630;4.896;2024-01-16T01:46:32;100170.47;;;1.90;73.55
46942;BME280;32676;52.630;4.896;2024-01-16T01:48:59;100160.16;;;1.87;73.61
46942;BME280;32676;52.630;4.896;2024-01-16T01:51:26;100158.41;;;1.86;73.80
46942;BME280;32676;52.630;4.896;2024-01-16T01:53:53;100148.03;;;1.86;74.01
46942;BME280;32676;52.630;4.896;2024-01-16T01:56:20;100144.63;;;1.81;73.99
46942;BME280;32676;52.630;4.896;2024-01-16T01:58:49;100166.16;;;1.89;74.23
46942;BME280;32676;52.630;4.896;2024-01-16T02:01:20;100161.84;;;1.85;74.14
46942;BME280;32676;52.630;4.896;2024-01-16T02:03:50;100156.69;;;1.85;74.19
46942;BME280;32676;52.630;4.896;2024-01-16T02:06:17;100161.84;;;1.88;74.28
46942;BME280;32676;52.630;4.896;2024-01-16T02:08:44;100159.25;;;1.88;74.27
46942;BME280;32676;52.630;4.896;2024-01-16T02:11:11;100146.31;;;1.85;74.34
46942;BME280;32676;52.630;4.896;2024-01-16T02:13:37;100154.97;;;1.84;74.40
46942;BME280;32676;52.630;4.896;2024-01-16T02:16:04;100149.78;;;1.84;74.22
46942;BME280;32676;52.630;4.896;2024-01-16T02:18:31;100139.44;;;1.81;74.45
46942;BME280;32676;52.630;4.896;2024-01-16T02:21:00;100157.56;;;1.86;74.33
46942;BME280;32676;52.630;4.896;2024-01-16T02:23:29;100148.94;;;1.84;74.25
46942;BME280;32676;52.630;4.896;2024-01-16T02:25:57;100151.50;;;1.85;74.19
46942;BME280;32676;52.630;4.896;2024-01-16T02:28:23;100151.50;;;1.85;74.29
46942;BME280;32676;52.630;4.896;2024-01-16T02:30:50;100149.78;;;1.84;74.34
46942;BME280;32676;52.630;4.896;2024-01-16T02:33:16;100149.78;;;1.84;74.41
46942;BME280;32676;52.630;4.896;2024-01-16T02:35:43;100154.97;;;1.86;74.39
46942;BME280;32676;52.630;4.896;2024-01-16T02:38:09;100156.69;;;1.85;74.55
46942;BME280;32676;52.630;4.896;2024-01-16T02:40:37;100157.56;;;1.84;74.77
46942;BME280;32676;52.630;4.896;2024-01-16T02:43:04;100156.69;;;1.85;74.92
46942;BME280;32676;52.630;4.896;2024-01-16T02:45:30;100154.09;;;1.85;75.18
46942;BME280;32676;52.630;4.896;2024-01-16T02:47:57;100148.06;;;1.83;75.33
46942;BME280;32676;52.630;4.896;2024-01-16T02:50:24;100141.19;;;1.82;75.43
46942;BME280;32676;52.630;4.896;2024-01-16T02:52:50;100135.16;;;1.80;75.85
46942;BME280;32676;52.630;4.896;2024-01-16T02:55:17;100139.44;;;1.81;76.17
46942;BME280;32676;52.630;4.896;2024-01-16T02:57:45;100132.56;;;1.80;76.45
46942;BME280;32676;52.630;4.896;2024-01-16T03:00:12;100128.25;;;1.78;77.03
46942;BME280;32676;52.630;4.896;2024-01-16T03:02:39;100115.31;;;1.76;77.29
46942;BME280;32676;52.630;4.896;2024-01-16T03:05:06;100113.59;;;1.75;77.73
46942;BME280;32676;52.630;4.896;2024-01-16T03:07:32;100113.59;;;1.75;77.95
46942;BME280;32676;52.630;4.896;2024-01-16T03:09:59;100105.84;;;1.73;78.10
46942;BME280;32676;52.630;4.896;2024-01-16T03:12:25;100105.84;;;1.73;78.09
46942;BME280;32676;52.630;4.896;2024-01-16T03:14:53;100101.53;;;1.71;78.01
46942;BME280;32676;52.630;4.896;2024-01-16T03:17:20;100102.41;;;1.71;78.05
46942;BME280;32676;52.630;4.896;2024-01-16T03:19:46;100107.59;;;1.73;78.17
46942;BME280;32676;52.630;4.896;2024-01-16T03:22:13;100089.47;;;1.67;77.86
46942;BME280;32676;52.630;4.896;2024-01-16T03:24:39;100090.38;;;1.67;77.88
46942;BME280;32676;52.630;4.896;2024-01-16T03:27:06;100081.72;;;1.67;77.74
46942;BME280;32676;52.630;4.896;2024-01-16T03:29:33;100080.00;;;1.66;77.70
46942;BME280;32676;52.630;4.896;2024-01-16T03:32:00;100096.41;;;1.68;77.67
46942;BME280;32676;52.630;4.896;2024-01-16T03:34:28;100101.53;;;1.71;77.63
46942;BME280;32676;52.630;4.896;2024-01-16T03:36:54;100101.56;;;1.68;77.63
46942;BME280;32676;52.630;4.896;2024-01-16T03:39:21;100093.78;;;1.69;77.40
46942;BME280;32676;52.630;4.896;2024-01-16T03:41:47;100084.31;;;1.67;77.42
46942;BME280;32676;52.630;4.896;2024-01-16T03:44:14;100072.25;;;1.63;77.57
46942;BME280;32676;52.630;4.896;2024-01-16T03:46:40;100074.00;;;1.64;77.60
46942;BME280;32676;52.630;4.896;2024-01-16T03:49:08;100076.59;;;1.64;77.89
46942;BME280;32676;52.630;4.896;2024-01-16T03:51:35;100079.19;;;1.64;78.27
46942;BME280;32676;52.630;4.896;2024-01-16T03:54:01;100048.16;;;1.54;78.59
46942;BME280;32676;52.630;4.896;2024-01-16T03:56:28;100062.75;;;1.62;78.65
46942;BME280;32676;52.630;4.896;2024-01-16T03:58:54;100049.88;;;1.56;78.75
46942;BME280;32676;52.630;4.896;2024-01-16T04:01:29;100013.78;;;1.40;78.95
46942;BME280;32676;52.630;4.896;2024-01-16T04:03:56;100020.56;;;1.50;79.25
46942;BME280;32676;52.630;4.896;2024-01-16T04:06:24;100007.69;;;1.46;79.28
46942;BME280;32676;52.630;4.896;2024-01-16T04:08:51;99996.50;;;1.42;79.50
46942;BME280;32676;52.630;4.896;2024-01-16T04:11:18;99980.97;;;1.39;79.75
46942;BME280;32676;52.630;4.896;2024-01-16T04:13:44;99971.50;;;1.38;79.74
46942;BME280;32676;52.630;4.896;2024-01-16T04:16:12;99972.38;;;1.37;79.84
46942;BME280;32676;52.630;4.896;2024-01-16T04:18:39;99958.59;;;1.35;79.69
46942;BME280;32676;52.630;4.896;2024-01-16T04:21:06;99969.78;;;1.36;79.85
46942;BME280;32676;52.630;4.896;2024-01-16T04:23:34;99969.78;;;1.36;79.93
46942;BME280;32676;52.630;4.896;2024-01-16T04:26:00;99964.63;;;1.36;80.06
46942;BME280;32676;52.630;4.896;2024-01-16T04:28:27;99963.78;;;1.35;79.98
46942;BME280;32676;52.630;4.896;2024-01-16T04:30:53;99958.59;;;1.35;80.03
46942;BME280;32676;52.630;4.896;2024-01-16T04:33:20;99959.44;;;1.36;80.08
46942;BME280;32676;52.630;4.896;2024-01-16T04:35:47;99969.78;;;1.36;80.14
46942;BME280;32676;52.630;4.896;2024-01-16T04:38:13;99967.22;;;1.36;80.31
46942;BME280;32676;52.630;4.896;2024-01-16T04:40:41;99965.47;;;1.36;80.16
46942;BME280;32676;52.630;4.896;2024-01-16T04:43:07;99955.16;;;1.33;80.12
46942;BME280;32676;52.630;4.896;2024-01-16T04:45:34;99959.44;;;1.34;80.10
46942;BME280;32676;52.630;4.896;2024-01-16T04:48:01;99949.16;;;1.29;80.18
46942;BME280;32676;52.630;4.896;2024-01-16T04:50:28;99962.03;;;1.34;80.09
46942;BME280;32676;52.630;4.896;2024-01-16T04:52:57;99955.16;;;1.33;80.13
46942;BME280;32676;52.630;4.896;2024-01-16T04:55:25;99968.91;;;1.38;80.23
46942;BME280;32676;52.630;4.896;2024-01-16T04:57:53;99972.38;;;1.37;80.33
46942;BME280;32676;52.630;4.896;2024-01-16T05:00:20;99955.16;;;1.33;80.13
46942;BME280;32676;52.630;4.896;2024-01-16T05:02:47;99946.53;;;1.31;80.04
46942;BME280;32676;52.630;4.896;2024-01-16T05:05:13;99940.50;;;1.29;80.04
46942;BME280;32676;52.630;4.896;2024-01-16T05:07:40;99934.50;;;1.27;79.98
46942;BME280;32676;52.630;4.896;2024-01-16T05:10:09;99940.50;;;1.29;80.20
46942;BME280;32676;52.630;4.896;2024-01-16T05:12:36;99955.19;;;1.31;80.17
46942;BME280;32676;52.630;4.896;2024-01-16T05:15:05;99963.78;;;1.35;80.50
46942;BME280;32676;52.630;4.896;2024-01-16T05:17:32;99985.31;;;1.39;80.75
46942;BME280;32676;52.630;4.896;2024-01-16T05:19:59;99993.91;;;1.42;80.95
46942;BME280;32676;52.630;4.896;2024-01-16T05:22:25;99984.41;;;1.41;81.37
46942;BME280;32676;52.630;4.896;2024-01-16T05:24:52;99989.59;;;1.41;81.73
46942;BME280;32676;52.630;4.896;2024-01-16T05:27:19;99990.47;;;1.40;82.04
46942;BME280;32676;52.630;4.896;2024-01-16T05:29:45;99969.78;;;1.37;82.44
46942;BME280;32676;52.630;4.896;2024-01-16T05:32:14;99979.25;;;1.38;82.70
46942;BME280;32676;52.630;4.896;2024-01-16T05:34:41;99968.94;;;1.35;82.97
46942;BME280;32676;52.630;4.896;2024-01-16T05:37:07;99956.88;;;1.34;83.21
46942;BME280;32676;52.630;4.896;2024-01-16T05:39:34;99968.94;;;1.35;83.57
46942;BME280;32676;52.630;4.896;2024-01-16T05:42:02;99984.44;;;1.38;83.73
46942;BME280;32676;52.630;4.896;2024-01-16T05:44:28;99981.00;;;1.38;83.95
46942;BME280;32676;52.630;4.896;2024-01-16T05:46:55;99961.22;;;1.30;84.25
46942;BME280;32676;52.630;4.896;2024-01-16T05:49:23;99932.81;;;1.26;84.30
46942;BME280;32676;52.630;4.896;2024-01-16T05:51:49;99939.66;;;1.27;84.52
46942;BME280;32676;52.630;4.896;2024-01-16T05:54:16;99934.50;;;1.25;84.70
46942;BME280;32676;52.630;4.896;2024-01-16T05:56:42;99907.84;;;1.19;84.83
46942;BME280;32676;52.630;4.896;2024-01-16T05:59:09;99912.13;;;1.20;84.78
46942;BME280;32676;52.630;4.896;2024-01-16T06:01:35;99918.16;;;1.22;84.96
46942;BME280;32676;52.630;4.896;2024-01-16T06:04:03;99924.19;;;1.24;85.07
46942;BME280;32676;52.630;4.896;2024-01-16T06:06:31;99928.47;;;1.25;85.20
46942;BME280;32676;52.630;4.896;2024-01-16T06:08:58;99937.97;;;1.26;85.18
46942;BME280;32676;52.630;4.896;2024-01-16T06:11:30;99944.00;;;1.28;85.39
46942;BME280;32676;52.630;4.896;2024-01-16T06:13:57;99943.16;;;1.23;85.37
46942;BME280;32676;52.630;4.896;2024-01-16T06:16:24;99964.63;;;1.32;85.40
46942;BME280;32676;52.630;4.896;2024-01-16T06:18:51;99958.63;;;1.32;85.29
46942;BME280;32676;52.630;4.896;2024-01-16T06:21:17;99959.47;;;1.32;85.23
46942;BME280;32676;52.630;4.896;2024-01-16T06:23:45;99974.13;;;1.35;85.08
46942;BME280;32676;52.630;4.896;2024-01-16T06:26:12;99974.13;;;1.35;84.82
46942;BME280;32676;52.630;4.896;2024-01-16T06:28:38;99979.28;;;1.37;84.55
46942;BME280;32676;52.630;4.896;2024-01-16T06:31:07;99981.00;;;1.36;84.51
46942;BME280;32676;52.630;4.896;2024-01-16T06:33:33;100005.97;;;1.43;84.45
46942;BME280;32676;52.630;4.896;2024-01-16T06:36:01;99993.09;;;1.34;84.33
46942;BME280;32676;52.630;4.896;2024-01-16T06:38:27;100026.66;;;1.46;84.34
46942;BME280;32676;52.630;4.896;2024-01-16T06:40:55;100028.34;;;1.47;83.92
46942;BME280;32676;52.630;4.896;2024-01-16T06:43:22;100027.50;;;1.48;83.99
46942;BME280;32676;52.630;4.896;2024-01-16T06:45:48;100034.41;;;1.46;83.84
46942;BME280;32676;52.630;4.896;2024-01-16T06:48:15;100019.81;;;1.41;83.42
46942;BME280;32676;52.630;4.896;2024-01-16T06:50:41;100025.75;;;1.47;83.32
46942;BME280;32676;52.630;4.896;2024-01-16T06:53:08;100010.28;;;1.41;83.11
46942;BME280;32676;52.630;4.896;2024-01-16T06:55:34;100001.69;;;1.42;82.93
46942;BME280;32676;52.630;4.896;2024-01-16T06:58:02;99986.16;;;1.39;82.85
46942;BME280;32676;52.630;4.896;2024-01-16T07:00:29;99991.34;;;1.36;82.82
46942;BME280;32676;52.630;4.896;2024-01-16T07:02:55;99980.16;;;1.36;82.66
46942;BME280;32676;52.630;4.896;2024-01-16T07:05:22;99972.41;;;1.34;82.62
46942;BME280;32676;52.630;4.896;2024-01-16T07:07:49;99966.38;;;1.33;82.80
46942;BME280;32676;52.630;4.896;2024-01-16T07:10:15;99967.22;;;1.31;82.64
46942;BME280;32676;52.630;4.896;2024-01-16T07:12:44;99974.13;;;1.35;82.52
46942;BME280;32676;52.630;4.896;2024-01-16T07:15:12;99959.50;;;1.29;82.50
46942;BME280;32676;52.630;4.896;2024-01-16T07:17:39;99979.31;;;1.35;82.38
46942;BME280;32676;52.630;4.896;2024-01-16T07:20:06;99979.31;;;1.35;82.45
46942;BME280;32676;52.630;4.896;2024-01-16T07:22:33;99977.56;;;1.34;82.39
46942;BME280;32676;52.630;4.896;2024-01-16T07:25:00;99990.50;;;1.37;82.32
46942;BME280;32676;52.630;4.896;2024-01-16T07:27:26;99986.16;;;1.39;82.40
46942;BME280;32676;52.630;4.896;2024-01-16T07:29:53;100010.28;;;1.41;82.43
46942;BME280;32676;52.630;4.896;2024-01-16T07:32:21;100011.13;;;1.43;82.63
46942;BME280;32676;52.630;4.896;2024-01-16T07:34:47;100017.16;;;1.45;82.65
46942;BME280;32676;52.630;4.896;2024-01-16T07:37:14;100032.69;;;1.48;82.92
46942;BME280;32676;52.630;4.896;2024-01-16T07:39:41;100056.81;;;1.53;83.10
46942;BME280;32676;52.630;4.896;2024-01-16T07:42:07;100074.03;;;1.58;83.52
46942;BME280;32676;52.630;4.896;2024-01-16T07:44:34;100065.41;;;1.59;83.71
46942;BME280;32676;52.630;4.896;2024-01-16T07:47:00;100059.38;;;1.55;83.85
46942;BME280;32676;52.630;4.896;2024-01-16T07:49:28;100049.91;;;1.52;84.25
46942;BME280;32676;52.630;4.896;2024-01-16T07:51:54;100037.84;;;1.48;84.11
46942;BME280;32676;52.630;4.896;2024-01-16T07:54:20;100019.75;;;1.45;84.41
46942;BME280;32676;52.630;4.896;2024-01-16T07:56:47;100015.47;;;1.41;84.44
46942;BME280;32676;52.630;4.896;2024-01-16T07:59:13;100001.75;;;1.33;84.82
46942;BME280;32676;52.630;4.896;2024-01-16T08:01:40;99979.31;;;1.35;84.62
46942;BME280;32676;52.630;4.896;2024-01-16T08:04:06;99951.75;;;1.28;84.63
46942;BME280;32676;52.630;4.896;2024-01-16T08:06:34;99927.63;;;1.23;84.72
46942;BME280;32676;52.630;4.896;2024-01-16T08:09:01;99920.78;;;1.19;84.75
46942;BME280;32676;52.630;4.896;2024-01-16T08:11:27;99894.94;;;1.11;84.95
46942;BME280;32676;52.630;4.896;2024-01-16T08:13:57;99871.75;;;1.05;85.11
46942;BME280;32676;52.630;4.896;2024-01-16T08:16:24;99860.53;;;1.04;85.25
46942;BME280;32676;52.630;4.896;2024-01-16T08:18:51;99854.56;;;0.98;85.49
46942;BME280;32676;52.630;4.896;2024-01-16T08:21:17;99876.00;;;1.07;85.67
46942;BME280;32676;52.630;4.896;2024-01-16T08:23:46;99914.78;;;1.17;85.87
46942;BME280;32676;52.630;4.896;2024-01-16T08:26:16;99941.44;;;1.23;86.10
46942;BME280;32676;52.630;4.896;2024-01-16T08:28:46;99984.47;;;1.35;86.09
46942;BME280;32676;52.630;4.896;2024-01-16T08:31:16;100020.63;;;1.44;85.86
46942;BME280;32676;52.630;4.896;2024-01-16T08:33:43;100042.19;;;1.45;85.57
46942;BME280;32676;52.630;4.896;2024-01-16T08:36:10;100090.41;;;1.61;85.40
46942;BME280;32676;52.630;4.896;2024-01-16T08:38:36;100118.81;;;1.69;85.15
46942;BME280;32676;52.630;4.896;2024-01-16T08:41:04;100142.09;;;1.73;85.05
46942;BME280;32676;52.630;4.896;2024-01-16T08:43:32;100177.44;;;1.82;84.65
46942;BME280;32676;52.630;4.896;2024-01-16T08:45:58;100186.91;;;1.82;84.47
46942;BME280;32676;52.630;4.896;2024-01-16T08:48:25;100198.97;;;1.89;84.01
46942;BME280;32676;52.630;4.896;2024-01-16T08:50:51;100207.56;;;1.91;83.78
46942;BME280;32676;52.630;4.896;2024-01-16T08:53:19;100227.44;;;1.95;83.45
46942;BME280;32676;52.630;4.896;2024-01-16T08:55:48;100246.41;;;1.99;82.93
46942;BME280;32676;52.630;4.896;2024-01-16T08:58:15;100257.63;;;2.02;82.94
46942;BME280;32676;52.630;4.896;2024-01-16T09:00:42;100258.47;;;2.00;82.78
46942;BME280;32676;52.630;4.896;2024-01-16T09:03:09;100262.78;;;2.04;82.55
46942;BME280;32676;52.630;4.896;2024-01-16T09:05:35;100260.22;;;2.04;82.41
46942;BME280;32676;52.630;4.896;2024-01-16T09:08:04;100270.59;;;2.01;82.04
46942;BME280;32676;52.630;4.896;2024-01-16T09:10:30;100294.69;;;2.09;82.26
46942;BME280;32676;52.630;4.896;2024-01-16T09:12:57;100303.31;;;2.14;81.93
46942;BME280;32676;52.630;4.896;2024-01-16T09:15:25;100345.63;;;2.22;81.94
46942;BME280;32676;52.630;4.896;2024-01-16T09:17:52;100359.41;;;2.26;81.64
46942;BME280;32676;52.630;4.896;2024-01-16T09:20:18;100370.63;;;2.29;81.34
46942;BME280;32676;52.630;4.896;2024-01-16T09:22:45;100395.66;;;2.34;81.11
46942;BME280;32676;52.630;4.896;2024-01-16T09:25:11;100410.31;;;2.38;80.66
46942;BME280;32676;52.630;4.896;2024-01-16T09:27:38;100447.44;;;2.47;80.75
46942;BME280;32676;52.630;4.896;2024-01-16T09:30:05;100482.81;;;2.59;80.24
46942;BME280;32676;52.630;4.896;2024-01-16T09:32:33;100508.75;;;2.62;79.81
46942;BME280;32676;52.630;4.896;2024-01-16T09:35:01;100515.63;;;2.66;79.35
46942;BME280;32676;52.630;4.896;2024-01-16T09:37:28;100522.53;;;2.69;78.83
46942;BME280;32676;52.630;4.896;2024-01-16T09:39:55;100551.91;;;2.76;78.13
46942;BME280;32676;52.630;4.896;2024-01-16T09:42:22;100557.09;;;2.76;77.21
46942;BME280;32676;52.630;4.896;2024-01-16T09:44:50;100582.16;;;2.83;76.30
46942;BME280;32676;52.630;4.896;2024-01-16T09:47:18;100603.75;;;2.88;75.71
46942;BME280;32676;52.630;4.896;2024-01-16T09:49:46;100615.00;;;2.87;74.87
46942;BME280;32676;52.630;4.896;2024-01-16T09:52:13;100614.13;;;2.88;74.38
46942;BME280;32676;52.630;4.896;2024-01-16T09:54:40;100639.19;;;2.94;73.73
46942;BME280;32676;52.630;4.896;2024-01-16T09:57:07;100658.22;;;3.00;73.30
46942;BME280;32676;52.630;4.896;2024-01-16T09:59:35;100663.38;;;3.02;72.64
46942;BME280;32676;52.630;4.896;2024-01-16T10:02:04;100671.16;;;3.03;72.37
46942;BME280;32676;52.630;4.896;2024-01-16T10:04:32;100674.59;;;3.05;71.94
46942;BME280;32676;52.630;4.896;2024-01-16T10:07:02;100690.19;;;3.08;71.62
46942;BME280;32676;52.630;4.896;2024-01-16T10:09:30;100728.22;;;3.19;71.13
46942;BME280;32676;52.630;4.896;2024-01-16T10:11:57;100759.34;;;3.25;70.96
46942;BME280;32676;52.630;4.896;2024-01-16T10:14:25;100764.53;;;3.25;70.79
46942;BME280;32676;52.630;4.896;2024-01-16T10:16:55;100809.50;;;3.39;70.55
46942;BME280;32676;52.630;4.896;2024-01-16T10:19:23;100825.09;;;3.42;70.32
46942;BME280;32676;52.630;4.896;2024-01-16T10:21:50;100849.34;;;3.48;70.11
46942;BME280;32676;52.630;4.896;2024-01-16T10:24:18;100873.53;;;3.53;69.82
46942;BME280;32676;52.630;4.896;2024-01-16T10:26:45;100878.72;;;3.56;69.32
46942;BME280;32676;52.630;4.896;2024-01-16T10:29:11;100918.56;;;3.64;68.89
46942;BME280;32676;52.630;4.896;2024-01-16T10:31:38;100931.53;;;3.69;68.52
46942;BME280;32676;52.630;4.896;2024-01-16T10:34:18;100972.22;;;3.77;68.21
46942;BME280;32676;52.630;4.896;2024-01-16T10:36:46;101005.16;;;3.88;67.95
46942;BME280;32676;52.630;4.896;2024-01-16T10:39:13;101038.91;;;3.95;67.77
46942;BME280;32676;52.630;4.896;2024-01-16T10:41:41;101060.59;;;3.99;67.48
46942;BME280;32676;52.630;4.896;2024-01-16T10:44:08;101081.38;;;4.05;67.10
46942;BME280;32676;52.630;4.896;2024-01-16T10:46:35;101090.03;;;4.07;66.97
46942;BME280;32676;52.630;4.896;2024-01-16T10:49:03;101084.00;;;4.00;66.87
46942;BME280;32676;52.630;4.896;2024-01-16T10:51:31;101082.22;;;4.06;67.04
46942;BME280;32676;52.630;4.896;2024-01-16T10:53:59;101077.91;;;4.03;66.67
46942;BME280;32676;52.630;4.896;2024-01-16T10:56:27;101123.84;;;4.15;66.60
46942;BME280;32676;52.630;4.896;2024-01-16T10:59:05;101155.03;;;4.24;66.45
46942;BME280;32676;52.630;4.896;2024-01-16T11:01:32;101178.44;;;4.29;66.46
46942;BME280;32676;52.630;4.896;2024-01-16T11:04:00;101207.03;;;4.36;66.49
46942;BME280;32676;52.630;4.896;2024-01-16T11:06:27;101212.25;;;4.38;66.48
46942;BME280;32676;52.630;4.896;2024-01-16T11:08:56;101219.19;;;4.40;66.26
46942;BME280;32676;52.630;4.896;2024-01-16T11:11:24;101224.41;;;4.39;66.23
46942;BME280;32676;52.630;4.896;2024-01-16T11:13:51;101194.94;;;4.28;66.32
46942;BME280;32676;52.630;4.896;2024-01-16T11:16:21;101207.91;;;4.35;66.28
46942;BME280;32676;52.630;4.896;2024-01-16T11:18:47;101200.97;;;4.36;66.19
46942;BME280;32676;52.630;4.896;2024-01-16T11:21:15;101153.28;;;4.23;66.35
46942;BME280;32676;52.630;4.896;2024-01-16T11:23:42;101111.69;;;4.14;65.99
46942;BME280;32676;52.630;4.896;2024-01-16T11:26:26;101070.97;;;3.97;65.97
46942;BME280;32676;52.630;4.896;2024-01-16T11:28:53;101063.19;;;4.00;66.07
46942;BME280;32676;52.630;4.896;2024-01-16T11:31:30;101052.78;;;3.99;65.99
46942;BME280;32676;52.630;4.896;2024-01-16T11:33:57;101057.09;;;4.00;66.22
46942;BME280;32676;52.630;4.896;2024-01-16T11:36:45;101080.50;;;4.06;66.42
46942;BME280;32676;52.630;4.896;2024-01-16T11:39:17;101083.97;;;4.02;66.31
46942;BME280;32676;52.630;4.896;2024-01-16T11:41:49;101079.66;;;4.04;66.43
46942;BME280;32676;52.630;4.896;2024-01-16T11:44:38;101073.56;;;4.03;66.36
46942;BME280;32676;52.630;4.896;2024-01-16T11:47:06;101086.56;;;4.08;66.39
46942;BME280;32676;52.630;4.896;2024-01-16T11:49:34;101096.97;;;4.08;66.18
46942;BME280;32676;52.630;4.896;2024-01-16T11:52:00;101107.38;;;4.11;66.29
46942;BME280;32676;52.630;4.896;2024-01-16T11:54:27;101100.44;;;4.10;66.45
46942;BME280;32676;52.630;4.896;2024-01-16T11:57:05;101088.31;;;4.03;66.63
46942;BME280;32676;52.630;4.896;2024-01-16T11:59:57;101112.56;;;4.14;66.67
46942;BME280;32676;52.630;4.896;2024-01-16T12:02:29;101137.72;;;4.18;66.43
46942;BME280;32676;52.630;4.896;2024-01-16T12:05:00;101180.19;;;4.31;66.48
46942;BME280;32676;52.630;4.896;2024-01-16T12:07:29;101218.31;;;4.40;66.20
46942;BME280;32676;52.630;4.896;2024-01-16T12:09:59;101232.19;;;4.42;66.01
46942;BME280;32676;52.630;4.896;2024-01-16T12:12:26;101266.91;;;4.53;65.86
46942;BME280;32676;52.630;4.896;2024-01-16T12:14:52;101275.56;;;4.52;65.46
46942;BME280;32676;52.630;4.896;2024-01-16T12:17:19;101252.16;;;4.48;64.98
46942;BME280;32676;52.630;4.896;2024-01-16T12:19:47;101221.78;;;4.42;64.84
46942;BME280;32676;52.630;4.896;2024-01-16T12:22:15;101183.63;;;4.32;64.70
46942;BME280;32676;52.630;4.896;2024-01-16T12:24:43;101148.94;;;4.23;64.74
46942;BME280;32676;52.630;4.896;2024-01-16T12:27:10;101114.31;;;4.15;64.79
46942;BME280;32676;52.630;4.896;2024-01-16T12:29:37;101072.69;;;4.03;64.96
46942;BME280;32676;52.630;4.896;2024-01-16T12:32:06;101052.78;;;3.99;65.33
46942;BME280;32676;52.630;4.896;2024-01-16T12:34:34;101002.53;;;3.89;65.36
46942;BME280;32676;52.630;4.896;2024-01-16T12:37:08;100993.00;;;3.83;65.40
46942;BME280;32676;52.630;4.896;2024-01-16T12:39:34;100986.09;;;3.81;65.58
46942;BME280;32676;52.630;4.896;2024-01-16T12:42:01;100983.50;;;3.79;65.90
46942;BME280;32676;52.630;4.896;2024-01-16T12:44:28;101018.13;;;3.91;65.78
46942;BME280;32676;52.630;4.896;2024-01-16T12:46:56;101018.97;;;3.93;65.84
46942;BME280;32676;52.630;4.896;2024-01-16T12:49:23;101056.25;;;3.99;65.60
46942;BME280;32676;52.630;4.896;2024-01-16T12:51:49;101128.16;;;4.17;65.29
46942;BME280;32676;52.630;4.896;2024-01-16T12:54:18;101159.38;;;4.20;65.18
46942;BME280;32676;52.630;4.896;2024-01-16T12:56:47;101201.84;;;4.36;65.19
46942;BME280;32676;52.630;4.896;2024-01-16T12:59:14;101189.72;;;4.34;64.76
46942;BME280;32676;52.630;4.896;2024-01-16T13:01:41;101189.72;;;4.34;64.56
46942;BME280;32676;52.630;4.896;2024-01-16T13:04:09;101160.22;;;4.26;64.58